Skip Navigation Links
NOAA logo - Click to go to the NOAA homepage
NOAA's National Weather Service
Alaska Aviation Weather Unit
  NWS logo - Click to go to the NWS homepage
Left Navbar Graphic     23 AKDT = 07 GMT

   
NOAA is celebrating 200 years of science, service, and stewardship. Visit the NOAA 200th celebration Web site to learn more.
USA.gov is the U.S. Government's official Web portal to all Federal, state and local government Web resources and services.
Facebook
NWS on Facebook

Important Change Regarding the AAWU Web Presence

 

Over the last several months, the AAWU has been working to navigate its webpages to a nationally supported server. Security, as well as other needs, have necessitated the change.  In the process, we have made an effort to enhance the functionality of our website, as well as some of our products. As of June 20, 2017, aawu.arh.noaa.gov will be discontinued. The new AAWU web address is weather.gov/aawu. It is now live and will run in-parallel with the old site until it is discontinued. Please send any feedback or questions regarding the new webpages to nws.ar.aawu.webauthors@noaa.gov.  Thank you for your patience during this time of transition.
AAWU Home :: Display TAF Add Bookmark
METAR PAPH 240156Z AUTO 16018G23KT 10SM -RA SCT028 OVC034 11/07 A2990
     RMK AO2 SLP129 P0000 T01060072=

METAR PAPH 240256Z AUTO 15018KT 10SM -RA FEW027 BKN034 OVC060 10/07
     A2988 RMK AO2 SLP120 P0001 60001 T01000067 58022=

METAR PAPH 240356Z AUTO 15017KT 10SM -RA OVC048 09/07 A2988 RMK AO2
     SLP120 P0001 T00940067=

METAR PAPH 240456Z AUTO 16020G23KT 10SM -RA SCT028 OVC036 09/07 A2987
     RMK AO2 SLP117 P0002 T00890067=

SPECI PAPH 240516Z AUTO 16014KT 10SM -RA BKN028 OVC036 09/07 A2987 RMK
     AO2 P0001=

METAR PAPH 240556Z AUTO 16014G18KT 10SM -RA SCT028 OVC036 08/07
 A2987 RMK AO2 SLP117 P0003 60007 T00830067 10117 20083 58003=


NOAA's National Weather Service
Alaska Aviation Weather Unit
6930 Sand Lake Road
Anchorage, AK 99502-1845
Disclaimer
Credits
Glossary
Privacy Policy
About Us
Career Opportunities
Contact AAWU Internet Services Site last modified: April, 17th 2012